sensor_id;sensor_type;location;lat;lon;timestamp;temperature;humidity
48946;DHT22;34999;50.940;3.998;2022-07-30T00:01:42;15.20;99.90
48946;DHT22;34999;50.940;3.998;2022-07-30T00:04:11;15.10;99.90
48946;DHT22;34999;50.940;3.998;2022-07-30T00:06:41;15.10;99.90
48946;DHT22;34999;50.940;3.998;2022-07-30T00:09:09;15.00;99.90
48946;DHT22;34999;50.940;3.998;2022-07-30T00:11:38;15.00;99.90
48946;DHT22;34999;50.940;3.998;2022-07-30T00:14:06;15.00;99.90
48946;DHT22;34999;50.940;3.998;2022-07-30T00:16:35;14.90;99.90
48946;DHT22;34999;50.940;3.998;2022-07-30T00:19:05;14.90;99.90
48946;DHT22;34999;50.940;3.998;2022-07-30T00:21:34;14.80;99.90
48946;DHT22;34999;50.940;3.998;2022-07-30T00:24:05;14.80;99.90
48946;DHT22;34999;50.940;3.998;2022-07-30T00:26:34;14.80;99.90
48946;DHT22;34999;50.940;3.998;2022-07-30T00:29:03;14.80;99.90
48946;DHT22;34999;50.940;3.998;2022-07-30T00:31:32;14.80;99.90
48946;DHT22;34999;50.940;3.998;2022-07-30T00:34:00;14.70;99.90
48946;DHT22;34999;50.940;3.998;2022-07-30T00:36:30;14.70;99.90
48946;DHT22;34999;50.940;3.998;2022-07-30T00:38:59;14.70;99.90
48946;DHT22;34999;50.940;3.998;2022-07-30T00:41:27;14.60;99.90
48946;DHT22;34999;50.940;3.998;2022-07-30T00:43:56;14.60;99.90
48946;DHT22;34999;50.940;3.998;2022-07-30T00:46:24;14.60;99.90
48946;DHT22;34999;50.940;3.998;2022-07-30T00:48:52;14.70;99.90
48946;DHT22;34999;50.940;3.998;2022-07-30T00:51:21;14.70;99.90
48946;DHT22;34999;50.940;3.998;2022-07-30T00:53:50;14.60;99.90
48946;DHT22;34999;50.940;3.998;2022-07-30T00:56:19;14.50;99.90
48946;DHT22;34999;50.940;3.998;2022-07-30T00:58:47;14.50;99.90
48946;DHT22;34999;50.940;3.998;2022-07-30T01:01:16;14.40;99.90
48946;DHT22;34999;50.940;3.998;2022-07-30T01:03:44;14.30;99.90
48946;DHT22;34999;50.940;3.998;2022-07-30T01:06:12;14.30;99.90
48946;DHT22;34999;50.940;3.998;2022-07-30T01:08:43;14.30;99.90
48946;DHT22;34999;50.940;3.998;2022-07-30T01:11:13;14.30;99.90
48946;DHT22;34999;50.940;3.998;2022-07-30T01:13:41;14.30;99.90
48946;DHT22;34999;50.940;3.998;2022-07-30T01:16:10;14.30;99.90
48946;DHT22;34999;50.940;3.998;2022-07-30T01:18:40;14.30;99.90
48946;DHT22;34999;50.940;3.998;2022-07-30T01:21:31;14.30;99.90
48946;DHT22;34999;50.940;3.998;2022-07-30T01:24:10;14.30;99.90
48946;DHT22;34999;50.940;3.998;2022-07-30T01:26:40;14.30;99.90
48946;DHT22;34999;50.940;3.998;2022-07-30T01:29:10;14.30;99.90
48946;DHT22;34999;50.940;3.998;2022-07-30T01:31:41;14.30;99.90
48946;DHT22;34999;50.940;3.998;2022-07-30T01:34:12;14.30;99.90
48946;DHT22;34999;50.940;3.998;2022-07-30T01:36:44;14.30;99.90
48946;DHT22;34999;50.940;3.998;2022-07-30T01:39:16;14.30;99.90
48946;DHT22;34999;50.940;3.998;2022-07-30T01:41:47;14.20;99.90
48946;DHT22;34999;50.940;3.998;2022-07-30T01:44:16;14.10;99.90
48946;DHT22;34999;50.940;3.998;2022-07-30T01:46:50;14.10;99.90
48946;DHT22;34999;50.940;3.998;2022-07-30T01:49:20;14.00;99.90
48946;DHT22;34999;50.940;3.998;2022-07-30T01:51:49;14.00;99.90
48946;DHT22;34999;50.940;3.998;2022-07-30T01:54:20;14.00;99.90
48946;DHT22;34999;50.940;3.998;2022-07-30T01:56:55;14.00;99.90
48946;DHT22;34999;50.940;3.998;2022-07-30T01:59:24;13.90;99.90
48946;DHT22;34999;50.940;3.998;2022-07-30T02:01:53;13.80;99.90
48946;DHT22;34999;50.940;3.998;2022-07-30T02:04:22;13.80;99.90
48946;DHT22;34999;50.940;3.998;2022-07-30T02:06:56;13.70;99.90
48946;DHT22;34999;50.940;3.998;2022-07-30T02:09:30;13.70;99.90
48946;DHT22;34999;50.940;3.998;2022-07-30T02:12:04;13.60;99.90
48946;DHT22;34999;50.940;3.998;2022-07-30T02:14:58;13.50;99.90
48946;DHT22;34999;50.940;3.998;2022-07-30T02:17:30;13.50;99.90
48946;DHT22;34999;50.940;3.998;2022-07-30T02:20:06;13.50;99.90
48946;DHT22;34999;50.940;3.998;2022-07-30T02:22:39;13.50;99.90
48946;DHT22;34999;50.940;3.998;2022-07-30T02:25:09;13.40;99.90
48946;DHT22;34999;50.940;3.998;2022-07-30T02:27:42;13.40;99.90
48946;DHT22;34999;50.940;3.998;2022-07-30T02:30:12;13.40;99.90
48946;DHT22;34999;50.940;3.998;2022-07-30T02:32:42;13.40;99.90
48946;DHT22;34999;50.940;3.998;2022-07-30T02:35:14;13.50;99.90
48946;DHT22;34999;50.940;3.998;2022-07-30T02:37:45;13.40;99.90
48946;DHT22;34999;50.940;3.998;2022-07-30T02:40:15;13.40;99.90
48946;DHT22;34999;50.940;3.998;2022-07-30T02:42:49;13.40;99.90
48946;DHT22;34999;50.940;3.998;2022-07-30T02:45:18;13.40;99.90
48946;DHT22;34999;50.940;3.998;2022-07-30T02:47:50;13.30;99.90
48946;DHT22;34999;50.940;3.998;2022-07-30T02:50:19;13.30;99.90
48946;DHT22;34999;50.940;3.998;2022-07-30T02:52:50;13.30;99.90
48946;DHT22;34999;50.940;3.998;2022-07-30T02:55:19;13.30;99.90
48946;DHT22;34999;50.940;3.998;2022-07-30T02:57:51;13.30;99.90
48946;DHT22;34999;50.940;3.998;2022-07-30T03:00:21;13.30;99.90
48946;DHT22;34999;50.940;3.998;2022-07-30T03:02:51;13.20;99.90
48946;DHT22;34999;50.940;3.998;2022-07-30T03:05:23;13.20;99.90
48946;DHT22;34999;50.940;3.998;2022-07-30T03:07:54;13.20;99.90
48946;DHT22;34999;50.940;3.998;2022-07-30T03:10:23;13.20;99.90
48946;DHT22;34999;50.940;3.998;2022-07-30T03:12:55;13.20;99.90
48946;DHT22;34999;50.940;3.998;2022-07-30T03:15:24;13.30;99.90
48946;DHT22;34999;50.940;3.998;2022-07-30T03:17:54;13.40;99.90
48946;DHT22;34999;50.940;3.998;2022-07-30T03:20:26;13.40;99.90
48946;DHT22;34999;50.940;3.998;2022-07-30T03:22:57;13.40;99.90
48946;DHT22;34999;50.940;3.998;2022-07-30T03:25:27;13.30;99.90
48946;DHT22;34999;50.940;3.998;2022-07-30T03:28:00;13.30;99.90
48946;DHT22;34999;50.940;3.998;2022-07-30T03:30:28;13.20;99.90
48946;DHT22;34999;50.940;3.998;2022-07-30T03:32:58;13.20;99.90
48946;DHT22;34999;50.940;3.998;2022-07-30T03:35:26;13.20;99.90
48946;DHT22;34999;50.940;3.998;2022-07-30T03:37:58;13.30;99.90
48946;DHT22;34999;50.940;3.998;2022-07-30T03:40:27;13.30;99.90
48946;DHT22;34999;50.940;3.998;2022-07-30T03:42:58;13.40;99.90
48946;DHT22;34999;50.940;3.998;2022-07-30T03:45:27;13.40;99.90
48946;DHT22;34999;50.940;3.998;2022-07-30T03:47:56;13.40;99.90
48946;DHT22;34999;50.940;3.998;2022-07-30T03:50:26;13.30;99.90
48946;DHT22;34999;50.940;3.998;2022-07-30T03:52:55;13.30;99.90
48946;DHT22;34999;50.940;3.998;2022-07-30T03:55:24;13.30;99.90
48946;DHT22;34999;50.940;3.998;2022-07-30T03:57:52;13.30;99.90
48946;DHT22;34999;50.940;3.998;2022-07-30T04:00:22;13.30;99.90
48946;DHT22;34999;50.940;3.998;2022-07-30T04:03:14;13.40;99.90
48946;DHT22;34999;50.940;3.998;2022-07-30T04:05:53;13.40;99.90
48946;DHT22;34999;50.940;3.998;2022-07-30T04:08:21;13.40;99.90
48946;DHT22;34999;50.940;3.998;2022-07-30T04:10:51;13.40;99.90
48946;DHT22;34999;50.940;3.998;2022-07-30T04:13:20;13.40;99.90
48946;DHT22;34999;50.940;3.998;2022-07-30T04:15:55;13.30;99.90
48946;DHT22;34999;50.940;3.998;2022-07-30T04:18:49;13.30;99.90
48946;DHT22;34999;50.940;3.998;2022-07-30T04:21:19;13.30;99.90
48946;DHT22;34999;50.940;3.998;2022-07-30T04:23:50;13.30;99.90
48946;DHT22;34999;50.940;3.998;2022-07-30T04:26:33;13.30;99.90
48946;DHT22;34999;50.940;3.998;2022-07-30T04:29:04;13.40;99.90
48946;DHT22;34999;50.940;3.998;2022-07-30T04:31:35;13.40;99.90
48946;DHT22;34999;50.940;3.998;2022-07-30T04:34:07;13.40;99.90
48946;DHT22;34999;50.940;3.998;2022-07-30T04:36:35;13.40;99.90
48946;DHT22;34999;50.940;3.998;2022-07-30T04:39:04;13.40;99.90
48946;DHT22;34999;50.940;3.998;2022-07-30T04:41:32;13.50;99.90
48946;DHT22;34999;50.940;3.998;2022-07-30T04:44:16;13.50;99.90
48946;DHT22;34999;50.940;3.998;2022-07-30T04:46:46;13.50;99.90
48946;DHT22;34999;50.940;3.998;2022-07-30T04:49:16;13.50;99.90
48946;DHT22;34999;50.940;3.998;2022-07-30T04:51:46;13.60;99.90
48946;DHT22;34999;50.940;3.998;2022-07-30T04:54:17;13.60;99.90
48946;DHT22;34999;50.940;3.998;2022-07-30T04:56:48;13.70;99.90
48946;DHT22;34999;50.940;3.998;2022-07-30T04:59:27;13.70;99.90
48946;DHT22;34999;50.940;3.998;2022-07-30T05:01:58;13.70;99.90
48946;DHT22;34999;50.940;3.998;2022-07-30T05:04:28;13.80;99.90
48946;DHT22;34999;50.940;3.998;2022-07-30T05:06:59;13.90;99.90
48946;DHT22;34999;50.940;3.998;2022-07-30T05:09:30;13.90;99.90
48946;DHT22;34999;50.940;3.998;2022-07-30T05:11:59;14.00;99.90
48946;DHT22;34999;50.940;3.998;2022-07-30T05:14:27;14.10;99.90
48946;DHT22;34999;50.940;3.998;2022-07-30T05:16:57;14.20;99.90
48946;DHT22;34999;50.940;3.998;2022-07-30T05:19:26;14.40;99.90
48946;DHT22;34999;50.940;3.998;2022-07-30T05:21:55;14.60;99.90
48946;DHT22;34999;50.940;3.998;2022-07-30T05:24:23;14.70;99.90
48946;DHT22;34999;50.940;3.998;2022-07-30T05:26:52;14.90;99.90
48946;DHT22;34999;50.940;3.998;2022-07-30T05:29:20;15.10;99.90
48946;DHT22;34999;50.940;3.998;2022-07-30T05:31:50;15.20;99.90
48946;DHT22;34999;50.940;3.998;2022-07-30T05:34:20;15.30;99.90
48946;DHT22;34999;50.940;3.998;2022-07-30T05:36:49;15.40;99.90
48946;DHT22;34999;50.940;3.998;2022-07-30T05:39:17;15.50;99.90
48946;DHT22;34999;50.940;3.998;2022-07-30T05:41:46;15.50;99.90
48946;DHT22;34999;50.940;3.998;2022-07-30T05:44:15;15.60;99.90
48946;DHT22;34999;50.940;3.998;2022-07-30T05:46:49;15.70;99.90
48946;DHT22;34999;50.940;3.998;2022-07-30T05:49:19;15.80;99.90
48946;DHT22;34999;50.940;3.998;2022-07-30T05:51:48;16.00;99.90
48946;DHT22;34999;50.940;3.998;2022-07-30T05:54:17;16.10;99.90
48946;DHT22;34999;50.940;3.998;2022-07-30T05:56:46;16.30;99.90
48946;DHT22;34999;50.940;3.998;2022-07-30T05:59:14;16.60;99.90
48946;DHT22;34999;50.940;3.998;2022-07-30T06:01:43;16.80;99.90
48946;DHT22;34999;50.940;3.998;2022-07-30T06:04:12;17.00;99.90
48946;DHT22;34999;50.940;3.998;2022-07-30T06:06:41;17.20;99.90
48946;DHT22;34999;50.940;3.998;2022-07-30T06:09:10;17.30;99.90
48946;DHT22;34999;50.940;3.998;2022-07-30T06:11:39;17.50;99.90
48946;DHT22;34999;50.940;3.998;2022-07-30T06:14:07;17.70;99.90
48946;DHT22;34999;50.940;3.998;2022-07-30T06:16:35;17.70;99.90
48946;DHT22;34999;50.940;3.998;2022-07-30T06:19:04;17.80;99.90
48946;DHT22;34999;50.940;3.998;2022-07-30T06:21:32;17.90;99.90
48946;DHT22;34999;50.940;3.998;2022-07-30T06:24:22;17.90;99.90
48946;DHT22;34999;50.940;3.998;2022-07-30T06:26:57;18.00;99.90
48946;DHT22;34999;50.940;3.998;2022-07-30T06:29:26;18.20;99.90
48946;DHT22;34999;50.940;3.998;2022-07-30T06:31:54;18.30;99.90
48946;DHT22;34999;50.940;3.998;2022-07-30T06:34:22;18.40;99.90
48946;DHT22;34999;50.940;3.998;2022-07-30T06:36:51;18.60;99.90
48946;DHT22;34999;50.940;3.998;2022-07-30T06:39:20;18.70;99.90
48946;DHT22;34999;50.940;3.998;2022-07-30T06:42:10;18.90;99.90
48946;DHT22;34999;50.940;3.998;2022-07-30T06:44:39;19.20;99.90
48946;DHT22;34999;50.940;3.998;2022-07-30T06:47:07;19.30;99.90
48946;DHT22;34999;50.940;3.998;2022-07-30T06:49:37;19.40;99.90
48946;DHT22;34999;50.940;3.998;2022-07-30T06:52:05;19.60;99.90
48946;DHT22;34999;50.940;3.998;2022-07-30T06:54:34;19.80;99.90
48946;DHT22;34999;50.940;3.998;2022-07-30T06:57:02;19.90;99.90
48946;DHT22;34999;50.940;3.998;2022-07-30T06:59:34;20.30;99.90
48946;DHT22;34999;50.940;3.998;2022-07-30T07:02:23;20.50;99.90
48946;DHT22;34999;50.940;3.998;2022-07-30T07:04:52;20.80;99.90
48946;DHT22;34999;50.940;3.998;2022-07-30T07:07:20;20.90;99.90
48946;DHT22;34999;50.940;3.998;2022-07-30T07:10:08;21.20;99.90
48946;DHT22;34999;50.940;3.998;2022-07-30T07:12:37;21.80;99.90
48946;DHT22;34999;50.940;3.998;2022-07-30T07:15:08;21.80;99.90
48946;DHT22;34999;50.940;3.998;2022-07-30T07:17:36;21.90;99.90
48946;DHT22;34999;50.940;3.998;2022-07-30T07:20:07;21.90;99.90
48946;DHT22;34999;50.940;3.998;2022-07-30T07:22:36;21.80;99.90
48946;DHT22;34999;50.940;3.998;2022-07-30T07:25:05;21.80;99.90
48946;DHT22;34999;50.940;3.998;2022-07-30T07:27:34;22.10;99.90
48946;DHT22;34999;50.940;3.998;2022-07-30T07:30:04;22.40;99.90
48946;DHT22;34999;50.940;3.998;2022-07-30T07:32:35;22.60;99.90
48946;DHT22;34999;50.940;3.998;2022-07-30T07:35:04;22.80;99.90
48946;DHT22;34999;50.940;3.998;2022-07-30T07:37:33;22.90;99.90
48946;DHT22;34999;50.940;3.998;2022-07-30T07:40:02;23.20;99.90
48946;DHT22;34999;50.940;3.998;2022-07-30T07:42:30;23.50;99.90
48946;DHT22;34999;50.940;3.998;2022-07-30T07:44:59;24.10;99.90
48946;DHT22;34999;50.940;3.998;2022-07-30T07:47:27;24.10;99.90
48946;DHT22;34999;50.940;3.998;2022-07-30T07:49:57;24.20;99.90
48946;DHT22;34999;50.940;3.998;2022-07-30T07:52:26;24.50;99.90
48946;DHT22;34999;50.940;3.998;2022-07-30T07:54:54;24.60;99.90
48946;DHT22;34999;50.940;3.998;2022-07-30T07:57:23;24.80;99.90
48946;DHT22;34999;50.940;3.998;2022-07-30T07:59:53;25.10;99.90
48946;DHT22;34999;50.940;3.998;2022-07-30T08:02:22;25.50;99.90
48946;DHT22;34999;50.940;3.998;2022-07-30T08:04:52;25.90;99.90
48946;DHT22;34999;50.940;3.998;2022-07-30T08:07:22;26.20;99.90
48946;DHT22;34999;50.940;3.998;2022-07-30T08:09:52;26.60;99.90
48946;DHT22;34999;50.940;3.998;2022-07-30T08:12:21;26.40;99.90
48946;DHT22;34999;50.940;3.998;2022-07-30T08:14:49;25.80;99.90
48946;DHT22;34999;50.940;3.998;2022-07-30T08:17:18;25.40;99.90
48946;DHT22;34999;50.940;3.998;2022-07-30T08:19:47;25.10;99.90
48946;DHT22;34999;50.940;3.998;2022-07-30T08:22:16;25.10;99.90
48946;DHT22;34999;50.940;3.998;2022-07-30T08:24:45;25.40;99.90
48946;DHT22;34999;50.940;3.998;2022-07-30T08:27:14;25.90;99.90
48946;DHT22;34999;50.940;3.998;2022-07-30T08:29:42;26.20;99.90
48946;DHT22;34999;50.940;3.998;2022-07-30T08:32:11;26.40;99.90
48946;DHT22;34999;50.940;3.998;2022-07-30T08:34:39;26.90;99.90
48946;DHT22;34999;50.940;3.998;2022-07-30T08:37:08;27.40;99.90
48946;DHT22;34999;50.940;3.998;2022-07-30T08:39:40;27.70;99.90
48946;DHT22;34999;50.940;3.998;2022-07-30T08:42:12;27.10;99.90
48946;DHT22;34999;50.940;3.998;2022-07-30T08:44:43;26.50;99.90
48946;DHT22;34999;50.940;3.998;2022-07-30T08:47:16;26.10;99.90
48946;DHT22;34999;50.940;3.998;2022-07-30T08:49:45;26.60;99.90
48946;DHT22;34999;50.940;3.998;2022-07-30T08:52:15;27.70;99.90
48946;DHT22;34999;50.940;3.998;2022-07-30T08:54:43;28.50;99.90
48946;DHT22;34999;50.940;3.998;2022-07-30T08:57:13;28.70;99.90
48946;DHT22;34999;50.940;3.998;2022-07-30T08:59:42;29.00;99.90
48946;DHT22;34999;50.940;3.998;2022-07-30T09:02:29;28.70;99.90
48946;DHT22;34999;50.940;3.998;2022-07-30T09:04:58;28.30;99.90
48946;DHT22;34999;50.940;3.998;2022-07-30T09:07:26;27.30;99.90
48946;DHT22;34999;50.940;3.998;2022-07-30T09:09:55;26.80;99.90
48946;DHT22;34999;50.940;3.998;2022-07-30T09:12:36;26.60;99.90
48946;DHT22;34999;50.940;3.998;2022-07-30T09:15:10;27.30;99.90
48946;DHT22;34999;50.940;3.998;2022-07-30T09:17:53;28.80;99.90
48946;DHT22;34999;50.940;3.998;2022-07-30T09:20:25;29.40;99.90
48946;DHT22;34999;50.940;3.998;2022-07-30T09:22:55;29.20;99.90
48946;DHT22;34999;50.940;3.998;2022-07-30T09:25:35;29.00;99.90
48946;DHT22;34999;50.940;3.998;2022-07-30T09:28:06;28.30;99.90
48946;DHT22;34999;50.940;3.998;2022-07-30T09:30:47;27.70;99.90
48946;DHT22;34999;50.940;3.998;2022-07-30T09:33:30;27.40;99.90
48946;DHT22;34999;50.940;3.998;2022-07-30T09:36:00;27.40;99.90
48946;DHT22;34999;50.940;3.998;2022-07-30T09:38:28;27.10;99.90
48946;DHT22;34999;50.940;3.998;2022-07-30T09:41:09;27.00;99.90
48946;DHT22;34999;50.940;3.998;2022-07-30T09:44:02;26.70;99.90
48946;DHT22;34999;50.940;3.998;2022-07-30T09:46:41;26.50;99.90
48946;DHT22;34999;50.940;3.998;2022-07-30T09:49:14;26.70;99.90
48946;DHT22;34999;50.940;3.998;2022-07-30T09:51:45;26.80;99.90
48946;DHT22;34999;50.940;3.998;2022-07-30T09:54:46;27.10;99.90
48946;DHT22;34999;50.940;3.998;2022-07-30T09:57:18;27.30;99.90
48946;DHT22;34999;50.940;3.998;2022-07-30T09:59:55;27.80;99.90
48946;DHT22;34999;50.940;3.998;2022-07-30T10:02:30;28.20;99.90
48946;DHT22;34999;50.940;3.998;2022-07-30T10:05:09;28.30;99.90
48946;DHT22;34999;50.940;3.998;2022-07-30T10:07:48;28.60;99.90
48946;DHT22;34999;50.940;3.998;2022-07-30T10:10:20;28.90;99.90
48946;DHT22;34999;50.940;3.998;2022-07-30T10:12:55;28.80;99.90
48946;DHT22;34999;50.940;3.998;2022-07-30T10:15:28;28.90;99.90
48946;DHT22;34999;50.940;3.998;2022-07-30T10:17:59;28.50;99.90
48946;DHT22;34999;50.940;3.998;2022-07-30T10:20:28;28.50;99.90
48946;DHT22;34999;50.940;3.998;2022-07-30T10:22:58;28.50;99.90
48946;DHT22;34999;50.940;3.998;2022-07-30T10:25:36;28.80;99.90
48946;DHT22;34999;50.940;3.998;2022-07-30T10:28:21;29.20;99.90
48946;DHT22;34999;50.940;3.998;2022-07-30T10:30:53;29.40;99.90
48946;DHT22;34999;50.940;3.998;2022-07-30T10:33:23;29.10;99.90
48946;DHT22;34999;50.940;3.998;2022-07-30T10:36:06;28.80;99.90
48946;DHT22;34999;50.940;3.998;2022-07-30T10:38:38;29.00;99.90
48946;DHT22;34999;50.940;3.998;2022-07-30T10:41:16;28.70;99.90
48946;DHT22;34999;50.940;3.998;2022-07-30T10:44:36;28.30;99.90
48946;DHT22;34999;50.940;3.998;2022-07-30T10:47:12;28.20;99.90
48946;DHT22;34999;50.940;3.998;2022-07-30T10:50:07;28.20;99.90
48946;DHT22;34999;50.940;3.998;2022-07-30T10:52:48;28.20;99.90
48946;DHT22;34999;50.940;3.998;2022-07-30T10:55:21;28.10;99.90
48946;DHT22;34999;50.940;3.998;2022-07-30T10:58:09;28.50;99.90
48946;DHT22;34999;50.940;3.998;2022-07-30T11:00:58;29.30;99.90
48946;DHT22;34999;50.940;3.998;2022-07-30T11:03:27;29.90;99.90
48946;DHT22;34999;50.940;3.998;2022-07-30T11:06:27;29.70;99.90
48946;DHT22;34999;50.940;3.998;2022-07-30T11:08:56;29.20;99.90
48946;DHT22;34999;50.940;3.998;2022-07-30T11:11:45;29.30;99.90
48946;DHT22;34999;50.940;3.998;2022-07-30T11:14:54;29.50;99.90
48946;DHT22;34999;50.940;3.998;2022-07-30T11:17:57;29.60;99.90
48946;DHT22;34999;50.940;3.998;2022-07-30T11:20:27;29.90;99.90
48946;DHT22;34999;50.940;3.998;2022-07-30T11:23:11;30.10;99.90
48946;DHT22;34999;50.940;3.998;2022-07-30T11:26:02;30.00;99.90
48946;DHT22;34999;50.940;3.998;2022-07-30T11:28:35;30.00;99.90
48946;DHT22;34999;50.940;3.998;2022-07-30T11:31:26;30.10;99.90
48946;DHT22;34999;50.940;3.998;2022-07-30T11:34:25;30.40;99.90
48946;DHT22;34999;50.940;3.998;2022-07-30T11:37:05;30.10;99.90
48946;DHT22;34999;50.940;3.998;2022-07-30T11:40:10;29.90;99.90
48946;DHT22;34999;50.940;3.998;2022-07-30T11:42:40;29.40;99.90
48946;DHT22;34999;50.940;3.998;2022-07-30T11:45:22;29.20;99.90
48946;DHT22;34999;50.940;3.998;2022-07-30T11:47:57;29.20;99.90
48946;DHT22;34999;50.940;3.998;2022-07-30T11:50:29;29.20;99.90
48946;DHT22;34999;50.940;3.998;2022-07-30T11:53:00;29.50;99.90
48946;DHT22;34999;50.940;3.998;2022-07-30T11:55:31;29.40;99.90
48946;DHT22;34999;50.940;3.998;2022-07-30T11:58:02;29.60;99.90
48946;DHT22;34999;50.940;3.998;2022-07-30T12:00:38;29.80;99.90
48946;DHT22;34999;50.940;3.998;2022-07-30T12:03:09;29.50;98.60
48946;DHT22;34999;50.940;3.998;2022-07-30T12:05:38;29.20;99.60
48946;DHT22;34999;50.940;3.998;2022-07-30T12:08:07;29.20;99.90
48946;DHT22;34999;50.940;3.998;2022-07-30T12:10:57;29.10;99.90
48946;DHT22;34999;50.940;3.998;2022-07-30T12:13:26;29.10;99.90
48946;DHT22;34999;50.940;3.998;2022-07-30T12:16:13;29.10;99.90
48946;DHT22;34999;50.940;3.998;2022-07-30T12:18:44;29.10;99.90
48946;DHT22;34999;50.940;3.998;2022-07-30T12:21:13;29.20;99.90
48946;DHT22;34999;50.940;3.998;2022-07-30T12:23:52;29.10;99.90
48946;DHT22;34999;50.940;3.998;2022-07-30T12:26:22;29.30;99.90
48946;DHT22;34999;50.940;3.998;2022-07-30T12:28:53;29.10;99.90
48946;DHT22;34999;50.940;3.998;2022-07-30T12:31:22;29.10;99.90
48946;DHT22;34999;50.940;3.998;2022-07-30T12:33:52;29.00;99.60
48946;DHT22;34999;50.940;3.998;2022-07-30T12:36:33;28.90;99.80
48946;DHT22;34999;50.940;3.998;2022-07-30T12:39:04;28.90;99.40
48946;DHT22;34999;50.940;3.998;2022-07-30T12:41:41;28.70;99.00
48946;DHT22;34999;50.940;3.998;2022-07-30T12:47:22;29.00;99.90
48946;DHT22;34999;50.940;3.998;2022-07-30T12:49:52;29.00;99.00
48946;DHT22;34999;50.940;3.998;2022-07-30T12:52:23;28.80;99.30
48946;DHT22;34999;50.940;3.998;2022-07-30T12:54:59;28.90;99.30
48946;DHT22;34999;50.940;3.998;2022-07-30T12:57:28;28.70;99.50
48946;DHT22;34999;50.940;3.998;2022-07-30T13:00:20;28.70;99.60
48946;DHT22;34999;50.940;3.998;2022-07-30T13:02:48;28.80;99.50
48946;DHT22;34999;50.940;3.998;2022-07-30T13:05:18;28.90;99.90
48946;DHT22;34999;50.940;3.998;2022-07-30T13:07:54;28.90;99.90
48946;DHT22;34999;50.940;3.998;2022-07-30T13:10:23;28.90;98.80
48946;DHT22;34999;50.940;3.998;2022-07-30T13:12:57;29.00;99.90
48946;DHT22;34999;50.940;3.998;2022-07-30T13:15:25;28.80;98.20
48946;DHT22;34999;50.940;3.998;2022-07-30T13:17:54;28.80;98.60
48946;DHT22;34999;50.940;3.998;2022-07-30T13:20:24;28.80;98.70
48946;DHT22;34999;50.940;3.998;2022-07-30T13:22:52;29.00;98.90
48946;DHT22;34999;50.940;3.998;2022-07-30T13:25:27;29.20;98.50
48946;DHT22;34999;50.940;3.998;2022-07-30T13:28:05;29.20;99.10
48946;DHT22;34999;50.940;3.998;2022-07-30T13:30:33;29.40;99.10
48946;DHT22;34999;50.940;3.998;2022-07-30T13:33:01;29.40;97.70
48946;DHT22;34999;50.940;3.998;2022-07-30T13:35:31;29.20;97.00
48946;DHT22;34999;50.940;3.998;2022-07-30T13:38:00;29.00;98.70
48946;DHT22;34999;50.940;3.998;2022-07-30T13:40:29;28.90;97.90
48946;DHT22;34999;50.940;3.998;2022-07-30T13:42:58;28.80;98.10
48946;DHT22;34999;50.940;3.998;2022-07-30T13:45:26;28.90;98.00
48946;DHT22;34999;50.940;3.998;2022-07-30T13:47:55;29.00;97.50
48946;DHT22;34999;50.940;3.998;2022-07-30T13:50:24;29.20;98.20
48946;DHT22;34999;50.940;3.998;2022-07-30T13:52:54;29.30;97.70
48946;DHT22;34999;50.940;3.998;2022-07-30T13:55:28;29.20;97.50
48946;DHT22;34999;50.940;3.998;2022-07-30T13:57:57;29.00;97.50
48946;DHT22;34999;50.940;3.998;2022-07-30T14:00:27;29.00;97.30
48946;DHT22;34999;50.940;3.998;2022-07-30T14:02:59;29.10;98.10
48946;DHT22;34999;50.940;3.998;2022-07-30T14:05:28;29.30;98.20
48946;DHT22;34999;50.940;3.998;2022-07-30T14:07:58;29.20;97.20
48946;DHT22;34999;50.940;3.998;2022-07-30T14:10:27;29.00;95.90
48946;DHT22;34999;50.940;3.998;2022-07-30T14:12:56;29.00;96.70
48946;DHT22;34999;50.940;3.998;2022-07-30T14:15:28;28.90;96.60
48946;DHT22;34999;50.940;3.998;2022-07-30T14:17:58;28.80;96.80
48946;DHT22;34999;50.940;3.998;2022-07-30T14:20:27;28.60;97.60
48946;DHT22;34999;50.940;3.998;2022-07-30T14:22:57;28.70;98.00
48946;DHT22;34999;50.940;3.998;2022-07-30T14:25:26;28.80;97.10
48946;DHT22;34999;50.940;3.998;2022-07-30T14:27:54;28.90;97.90
48946;DHT22;34999;50.940;3.998;2022-07-30T14:30:23;28.80;98.00
48946;DHT22;34999;50.940;3.998;2022-07-30T14:32:52;28.70;97.60
48946;DHT22;34999;50.940;3.998;2022-07-30T14:35:28;28.70;97.60
48946;DHT22;34999;50.940;3.998;2022-07-30T14:37:58;28.50;97.50
48946;DHT22;34999;50.940;3.998;2022-07-30T14:40:29;28.50;98.00
48946;DHT22;34999;50.940;3.998;2022-07-30T14:42:58;28.30;97.70
48946;DHT22;34999;50.940;3.998;2022-07-30T14:45:27;28.20;97.50
48946;DHT22;34999;50.940;3.998;2022-07-30T14:47:55;28.10;98.20
48946;DHT22;34999;50.940;3.998;2022-07-30T14:50:24;28.20;98.40
48946;DHT22;34999;50.940;3.998;2022-07-30T14:52:52;28.20;98.10
48946;DHT22;34999;50.940;3.998;2022-07-30T14:55:22;28.20;97.80
48946;DHT22;34999;50.940;3.998;2022-07-30T14:57:50;28.30;99.20
48946;DHT22;34999;50.940;3.998;2022-07-30T15:00:19;28.10;97.90
48946;DHT22;34999;50.940;3.998;2022-07-30T15:02:50;28.10;98.20
48946;DHT22;34999;50.940;3.998;2022-07-30T15:05:18;28.20;98.30
48946;DHT22;34999;50.940;3.998;2022-07-30T15:07:47;28.30;99.50
48946;DHT22;34999;50.940;3.998;2022-07-30T15:10:17;28.40;98.00
48946;DHT22;34999;50.940;3.998;2022-07-30T15:12:47;28.40;98.10
48946;DHT22;34999;50.940;3.998;2022-07-30T15:15:15;28.30;97.30
48946;DHT22;34999;50.940;3.998;2022-07-30T15:17:46;28.30;97.50
48946;DHT22;34999;50.940;3.998;2022-07-30T15:20:14;28.20;98.00
48946;DHT22;34999;50.940;3.998;2022-07-30T15:22:43;28.00;97.70
48946;DHT22;34999;50.940;3.998;2022-07-30T15:25:11;28.00;97.80
48946;DHT22;34999;50.940;3.998;2022-07-30T15:27:40;28.10;98.70
48946;DHT22;34999;50.940;3.998;2022-07-30T15:30:11;28.20;97.90
48946;DHT22;34999;50.940;3.998;2022-07-30T15:32:39;28.20;96.90
48946;DHT22;34999;50.940;3.998;2022-07-30T15:35:08;28.20;97.50
48946;DHT22;34999;50.940;3.998;2022-07-30T15:37:40;28.10;97.60
48946;DHT22;34999;50.940;3.998;2022-07-30T15:40:09;28.00;98.00
48946;DHT22;34999;50.940;3.998;2022-07-30T15:42:37;28.00;97.70
48946;DHT22;34999;50.940;3.998;2022-07-30T15:45:06;27.90;97.40
48946;DHT22;34999;50.940;3.998;2022-07-30T15:47:46;27.90;98.00
48946;DHT22;34999;50.940;3.998;2022-07-30T15:50:14;27.80;98.10
48946;DHT22;34999;50.940;3.998;2022-07-30T15:52:43;27.90;98.60
48946;DHT22;34999;50.940;3.998;2022-07-30T15:55:12;27.90;98.70
48946;DHT22;34999;50.940;3.998;2022-07-30T15:57:40;28.00;98.10
48946;DHT22;34999;50.940;3.998;2022-07-30T16:00:10;28.00;98.80
48946;DHT22;34999;50.940;3.998;2022-07-30T16:02:38;28.00;98.90
48946;DHT22;34999;50.940;3.998;2022-07-30T16:05:15;27.90;98.80